createdAt,value
2022-08-27T00:01:39.819Z,100663.41
2022-08-27T00:04:07.658Z,100650.97
2022-08-27T00:06:36.663Z,100662.06
2022-08-27T00:09:06.479Z,100658.59
2022-08-27T00:11:36.273Z,100653.34
2022-08-27T00:14:04.846Z,100653.66
2022-08-27T00:16:32.992Z,100656.41
2022-08-27T00:19:01.825Z,100658.59
2022-08-27T00:21:29.689Z,100664.81
2022-08-27T00:23:58.168Z,100656.47
2022-08-27T00:27:27.403Z,100661.84
2022-08-27T00:30:00.086Z,100657.19
2022-08-27T00:32:28.380Z,100665.06
2022-08-27T00:34:59.339Z,100653.22
2022-08-27T00:37:27.428Z,100649.66
2022-08-27T00:39:55.941Z,100649.41
2022-08-27T00:42:23.892Z,100651.50
2022-08-27T00:44:51.704Z,100648.28
2022-08-27T00:47:24.196Z,100653.75
2022-08-27T00:49:54.891Z,100641.28
2022-08-27T00:52:26.204Z,100654.31
2022-08-27T00:54:58.272Z,100640.47
2022-08-27T00:57:26.421Z,100644.25
2022-08-27T00:59:54.516Z,100645.94
2022-08-27T01:02:29.501Z,100639.66
2022-08-27T01:05:00.718Z,100639.66
2022-08-27T01:07:31.403Z,100645.91
2022-08-27T01:10:01.351Z,100651.59
2022-08-27T01:12:32.062Z,100653.25
2022-08-27T01:14:59.846Z,100658.66
2022-08-27T01:17:29.361Z,100653.84
2022-08-27T01:20:00.493Z,100658.94
2022-08-27T01:22:32.761Z,100652.00
2022-08-27T01:25:06.374Z,100652.19
2022-08-27T01:27:34.371Z,100658.78
2022-08-27T01:30:02.843Z,100654.91
2022-08-27T01:32:33.146Z,100652.75
2022-08-27T01:35:01.747Z,100656.81
2022-08-27T01:37:30.114Z,100656.00
2022-08-27T01:39:59.514Z,100653.28
2022-08-27T01:42:31.723Z,100657.06
2022-08-27T01:45:01.449Z,100653.09
2022-08-27T01:47:33.405Z,100652.19
2022-08-27T01:50:03.472Z,100644.06
2022-08-27T01:52:33.102Z,100641.91
2022-08-27T01:55:01.364Z,100653.25
2022-08-27T01:57:31.516Z,100645.13
2022-08-27T01:59:59.895Z,100648.94
2022-08-27T02:02:28.559Z,100643.44
2022-08-27T02:04:57.006Z,100646.66
2022-08-27T02:07:25.339Z,100649.34
2022-08-27T02:09:53.495Z,100651.00
2022-08-27T02:12:21.827Z,100645.84
2022-08-27T02:14:54.163Z,100652.88
2022-08-27T02:17:21.922Z,100649.59
2022-08-27T02:19:49.575Z,100653.34
2022-08-27T02:22:18.196Z,100653.66
2022-08-27T02:24:47.019Z,100648.75
2022-08-27T02:27:14.865Z,100645.59
2022-08-27T02:29:42.691Z,100646.09
2022-08-27T02:32:22.707Z,100646.69
2022-08-27T02:35:00.006Z,100649.34
2022-08-27T02:37:28.817Z,100645.03
2022-08-27T02:39:56.830Z,100637.50
2022-08-27T02:42:25.532Z,100645.59
2022-08-27T02:44:54.410Z,100644.53
2022-08-27T02:47:23.752Z,100645.53
2022-08-27T02:49:53.082Z,100648.03
2022-08-27T02:53:24.010Z,100648.84
2022-08-27T02:55:52.154Z,100643.19
2022-08-27T02:58:19.836Z,100647.22
2022-08-27T03:00:47.795Z,100645.31
2022-08-27T03:03:17.535Z,100650.44
2022-08-27T03:05:45.507Z,100651.00
2022-08-27T03:08:13.442Z,100646.59
2022-08-27T03:10:41.213Z,100643.16
2022-08-27T03:13:09.132Z,100647.75
2022-08-27T03:15:36.720Z,100648.81
2022-08-27T03:18:20.368Z,100646.09
2022-08-27T03:20:51.067Z,100646.59
2022-08-27T03:23:21.533Z,100650.41
2022-08-27T03:25:52.445Z,100652.59
2022-08-27T03:28:23.110Z,100654.72
2022-08-27T03:30:52.383Z,100653.66
2022-08-27T03:33:22.436Z,100646.88
2022-08-27T03:35:52.116Z,100650.31
2022-08-27T03:38:20.499Z,100654.69
2022-08-27T03:40:48.428Z,100655.78
2022-08-27T03:43:17.157Z,100652.56
2022-08-27T03:45:48.453Z,100656.59
2022-08-27T03:48:29.444Z,100655.78
2022-08-27T03:51:00.776Z,100652.03
2022-08-27T03:53:29.577Z,100657.16
2022-08-27T03:55:58.413Z,100654.19
2022-08-27T03:58:26.423Z,100657.41
2022-08-27T04:00:54.956Z,100657.41
2022-08-27T04:03:23.277Z,100665.00
2022-08-27T04:05:54.491Z,100665.00
2022-08-27T04:08:24.266Z,100660.63
2022-08-27T04:10:53.712Z,100662.31
2022-08-27T04:13:22.302Z,100661.75
2022-08-27T04:15:52.310Z,100662.81
2022-08-27T04:18:20.840Z,100669.59
2022-08-27T04:20:52.472Z,100663.94
2022-08-27T04:23:20.845Z,100661.25
2022-08-27T04:25:50.232Z,100666.16
2022-08-27T04:28:18.119Z,100663.91
2022-08-27T04:30:47.952Z,100661.25
2022-08-27T04:33:17.015Z,100666.66
2022-08-27T04:35:45.361Z,100664.78
2022-08-27T04:38:13.212Z,100670.44
2022-08-27T04:40:58.557Z,100677.97
2022-08-27T04:43:28.757Z,100670.38
2022-08-27T04:45:57.059Z,100670.94
2022-08-27T04:48:25.726Z,100672.06
2022-08-27T04:50:53.572Z,100682.31
2022-08-27T04:53:21.589Z,100681.78
2022-08-27T04:55:52.008Z,100676.06
2022-08-27T04:58:21.549Z,100677.69
2022-08-27T05:00:56.056Z,100678.31
2022-08-27T05:03:26.234Z,100680.16
2022-08-27T05:05:59.543Z,100670.94
2022-08-27T05:08:28.362Z,100685.56
2022-08-27T05:10:56.803Z,100678.00
2022-08-27T05:13:24.709Z,100688.53
2022-08-27T05:15:59.652Z,100686.41
2022-08-27T05:18:28.312Z,100679.59
2022-08-27T05:20:57.238Z,100687.50
2022-08-27T05:23:28.217Z,100689.94
2022-08-27T05:25:56.525Z,100688.84
2022-08-27T05:28:27.905Z,100688.84
2022-08-27T05:31:04.888Z,100691.28
2022-08-27T05:33:32.947Z,100686.75
2022-08-27T05:36:01.430Z,100688.94
2022-08-27T05:38:30.870Z,100683.19
2022-08-27T05:41:09.018Z,100686.19
2022-08-27T05:43:38.072Z,100689.94
2022-08-27T05:46:12.027Z,100689.25
2022-08-27T05:48:41.662Z,100698.75
2022-08-27T05:51:11.177Z,100687.34
2022-08-27T05:53:39.516Z,100694.34
2022-08-27T05:56:13.216Z,100690.59
2022-08-27T05:58:58.694Z,100697.06
2022-08-27T06:01:31.551Z,100698.94
2022-08-27T06:03:59.377Z,100696.50
2022-08-27T06:07:31.789Z,100696.59
2022-08-27T06:10:01.263Z,100697.97
2022-08-27T06:12:29.698Z,100706.06
2022-08-27T06:14:57.652Z,100704.97
2022-08-27T06:17:27.048Z,100710.84
2022-08-27T06:19:54.815Z,100707.44
2022-08-27T06:23:28.113Z,100708.16
2022-08-27T06:25:56.894Z,100706.00
2022-08-27T06:28:29.688Z,100709.28
2022-08-27T06:31:04.337Z,100708.75
2022-08-27T06:33:37.621Z,100718.03
2022-08-27T06:36:07.665Z,100710.50
2022-08-27T06:38:36.085Z,100709.47
2022-08-27T06:41:05.453Z,100709.00
2022-08-27T06:43:33.276Z,100711.81
2022-08-27T06:46:03.753Z,100713.47
2022-08-27T06:48:35.316Z,100719.38
2022-08-27T06:51:09.076Z,100718.97
2022-08-27T06:53:37.757Z,100717.97
2022-08-27T06:56:06.571Z,100712.34
2022-08-27T06:58:35.087Z,100714.81
2022-08-27T07:01:03.377Z,100712.09
2022-08-27T07:03:31.087Z,100711.13
2022-08-27T07:06:07.659Z,100719.19
2022-08-27T07:08:35.822Z,100717.31
2022-08-27T07:11:03.638Z,100718.72
2022-08-27T07:13:31.424Z,100711.13
2022-08-27T07:17:03.427Z,100710.38
2022-08-27T07:19:32.249Z,100722.75
2022-08-27T07:22:01.368Z,100723.00
2022-08-27T07:24:29.531Z,100724.25
2022-08-27T07:26:57.652Z,100734.19
2022-08-27T07:29:31.680Z,100724.94
2022-08-27T07:32:00.091Z,100727.66
2022-08-27T07:34:28.017Z,100735.81
2022-08-27T07:36:55.752Z,100728.75
2022-08-27T07:39:25.018Z,100723.81
2022-08-27T07:42:13.405Z,100734.19
2022-08-27T07:45:45.640Z,100740.72
2022-08-27T07:48:13.804Z,100731.47
2022-08-27T07:50:42.751Z,100748.84
2022-08-27T07:53:10.570Z,100745.84
2022-08-27T07:55:42.584Z,100745.63
2022-08-27T07:58:11.599Z,100755.34
2022-08-27T08:00:43.160Z,100749.94
2022-08-27T08:03:13.555Z,100742.88
2022-08-27T08:05:43.301Z,100738.81
2022-08-27T08:08:11.868Z,100756.47
2022-08-27T08:10:42.474Z,100749.38
2022-08-27T08:13:10.228Z,100752.31
2022-08-27T08:15:38.172Z,100754.31
2022-08-27T08:18:06.723Z,100756.47
2022-08-27T08:20:56.714Z,100759.56
2022-08-27T08:23:24.996Z,100762.25
2022-08-27T08:25:58.483Z,100768.97
2022-08-27T08:28:27.800Z,100769.47
2022-08-27T08:30:56.442Z,100768.28
2022-08-27T08:33:24.471Z,100759.84
2022-08-27T08:35:53.065Z,100761.88
2022-08-27T08:38:21.937Z,100765.59
2022-08-27T08:40:54.740Z,100765.97
2022-08-27T08:43:30.181Z,100768.28
2022-08-27T08:46:00.582Z,100765.34
2022-08-27T08:48:29.667Z,100765.44
2022-08-27T08:51:02.935Z,100773.06
2022-08-27T08:53:39.100Z,100771.41
2022-08-27T08:56:11.374Z,100777.09
2022-08-27T08:58:45.984Z,100772.81
2022-08-27T09:01:18.729Z,100772.81
2022-08-27T09:03:51.220Z,100772.28
2022-08-27T09:06:22.651Z,100775.25
2022-08-27T09:08:50.551Z,100778.28
2022-08-27T09:11:23.022Z,100781.16
2022-08-27T09:13:55.516Z,100778.25
2022-08-27T09:16:23.534Z,100772.81
2022-08-27T09:18:52.626Z,100772.81
2022-08-27T09:21:28.356Z,100772.81
2022-08-27T09:24:09.557Z,100779.63
2022-08-27T09:26:40.391Z,100779.34
2022-08-27T09:29:20.445Z,100779.63
2022-08-27T09:31:55.554Z,100781.81
2022-08-27T09:34:24.435Z,100783.19
2022-08-27T09:36:59.583Z,100775.56
2022-08-27T09:39:33.262Z,100772.28
2022-08-27T09:42:01.430Z,100773.34
2022-08-27T09:44:32.629Z,100770.66
2022-08-27T09:47:02.447Z,100779.09
2022-08-27T09:49:31.483Z,100769.56
2022-08-27T09:51:59.162Z,100775.56
2022-08-27T09:54:39.593Z,100777.97
2022-08-27T09:57:07.922Z,100786.69
2022-08-27T09:59:39.070Z,100781.81
2022-08-27T10:02:15.325Z,100780.97
2022-08-27T10:04:51.060Z,100783.16
2022-08-27T10:07:38.332Z,100784.53
2022-08-27T10:10:12.134Z,100770.66
2022-08-27T10:12:48.412Z,100769.28
2022-08-27T10:15:20.164Z,100783.97
2022-08-27T10:17:59.538Z,100786.16
2022-08-27T10:20:36.671Z,100782.63
2022-08-27T10:23:16.637Z,100779.09
2022-08-27T10:25:55.042Z,100767.22
2022-08-27T10:28:31.866Z,100773.25
2022-08-27T10:31:31.459Z,100778.28
2022-08-27T10:34:12.220Z,100785.75
2022-08-27T10:36:47.047Z,100776.84
2022-08-27T10:39:20.273Z,100787.41
2022-08-27T10:41:54.362Z,100792.28
2022-08-27T10:44:40.425Z,100787.97
2022-08-27T10:47:21.863Z,100786.06
2022-08-27T10:49:54.478Z,100795.09
2022-08-27T10:52:26.724Z,100789.63
2022-08-27T10:54:58.441Z,100791.56
2022-08-27T10:57:55.468Z,100797.00
2022-08-27T11:00:32.048Z,100794.63
2022-08-27T11:03:04.352Z,100805.50
2022-08-27T11:05:37.164Z,100797.88
2022-08-27T11:08:09.029Z,100795.91
2022-08-27T11:10:39.509Z,100783.66
2022-08-27T11:13:09.647Z,100788.56
2022-08-27T11:15:39.681Z,100787.44
2022-08-27T11:18:16.558Z,100782.88
2022-08-27T11:20:51.056Z,100776.31
2022-08-27T11:23:21.950Z,100776.19
2022-08-27T11:25:54.367Z,100795.06
2022-08-27T11:28:31.442Z,100785.84
2022-08-27T11:31:04.933Z,100778.63
2022-08-27T11:33:45.408Z,100767.22
2022-08-27T11:36:53.262Z,100766.53
2022-08-27T11:39:32.026Z,100768.03
2022-08-27T11:42:05.249Z,100774.91
2022-08-27T11:44:33.316Z,100772.31
2022-08-27T11:47:12.183Z,100773.88
2022-08-27T11:49:46.311Z,100774.28
2022-08-27T11:52:22.153Z,100787.44
2022-08-27T11:54:52.251Z,100773.47
2022-08-27T11:57:33.420Z,100780.88
2022-08-27T12:00:16.693Z,100773.59
2022-08-27T12:02:44.950Z,100768.69
2022-08-27T12:05:26.704Z,100766.22
2022-08-27T12:07:54.690Z,100758.88
2022-08-27T12:10:33.173Z,100767.25
2022-08-27T12:13:16.605Z,100773.56
2022-08-27T12:15:52.943Z,100767.91
2022-08-27T12:18:37.308Z,100781.47
2022-08-27T12:21:15.380Z,100761.38
2022-08-27T12:23:47.000Z,100768.16
2022-08-27T12:26:20.160Z,100761.56
2022-08-27T12:28:48.091Z,100776.13
2022-08-27T12:31:19.582Z,100780.50
2022-08-27T12:33:49.742Z,100787.53
2022-08-27T12:36:28.028Z,100773.25
2022-08-27T12:38:58.337Z,100775.19
2022-08-27T12:41:31.975Z,100769.19
2022-08-27T12:44:08.374Z,100778.44
2022-08-27T12:46:40.276Z,100769.34
2022-08-27T12:49:37.000Z,100757.38
2022-08-27T12:52:02.633Z,100766.41
2022-08-27T12:54:39.866Z,100765.13
2022-08-27T12:57:14.187Z,100767.69
2022-08-27T12:59:56.288Z,100771.72
2022-08-27T13:02:36.399Z,100771.66
2022-08-27T13:05:10.287Z,100773.31
2022-08-27T13:07:44.102Z,100759.28
2022-08-27T13:10:17.635Z,100771.16
2022-08-27T13:12:46.949Z,100760.47
2022-08-27T13:15:16.776Z,100754.34
2022-08-27T13:17:47.398Z,100766.59
2022-08-27T13:20:19.149Z,100764.75
2022-08-27T13:22:48.729Z,100763.88
2022-08-27T13:25:25.133Z,100774.69
2022-08-27T13:27:55.948Z,100766.50
2022-08-27T13:30:35.696Z,100768.56
2022-08-27T13:33:06.832Z,100765.81
2022-08-27T13:35:34.870Z,100767.81
2022-08-27T13:38:08.038Z,100759.28
2022-08-27T13:40:39.132Z,100755.38
2022-08-27T13:43:09.589Z,100765.16
2022-08-27T13:45:38.773Z,100746.91
2022-08-27T13:48:08.311Z,100748.41
2022-08-27T13:50:37.061Z,100751.34
2022-08-27T13:53:26.601Z,100753.16
2022-08-27T13:55:54.939Z,100753.22
2022-08-27T13:58:26.987Z,100746.81
2022-08-27T14:00:55.980Z,100743.31
2022-08-27T14:03:31.458Z,100731.75
2022-08-27T14:06:00.457Z,100751.06
2022-08-27T14:08:34.766Z,100752.25
2022-08-27T14:11:05.848Z,100753.34
2022-08-27T14:13:40.218Z,100762.09
2022-08-27T14:16:17.751Z,100750.38
2022-08-27T14:18:59.407Z,100747.00
2022-08-27T14:21:27.685Z,100750.25
2022-08-27T14:23:56.828Z,100738.41
2022-08-27T14:26:26.719Z,100744.84
2022-08-27T14:28:55.936Z,100737.88
2022-08-27T14:31:24.406Z,100738.25
2022-08-27T14:33:54.310Z,100742.22
2022-08-27T14:36:22.577Z,100737.78
2022-08-27T14:38:52.539Z,100751.44
2022-08-27T14:41:22.777Z,100758.31
2022-08-27T14:43:50.969Z,100737.34
2022-08-27T14:46:25.121Z,100751.81
2022-08-27T14:48:54.662Z,100742.88
2022-08-27T14:51:25.417Z,100743.88
2022-08-27T14:53:53.843Z,100746.81
2022-08-27T14:56:24.239Z,100758.81
2022-08-27T14:58:53.625Z,100749.56
2022-08-27T15:01:24.218Z,100746.38
2022-08-27T15:03:52.749Z,100759.03
2022-08-27T15:06:23.618Z,100746.44
2022-08-27T15:08:52.562Z,100752.78
2022-08-27T15:11:24.713Z,100742.47
2022-08-27T15:13:52.968Z,100761.91
2022-08-27T15:16:28.895Z,100745.72
2022-08-27T15:19:00.893Z,100753.25
2022-08-27T15:21:30.674Z,100746.09
2022-08-27T15:24:01.065Z,100751.53
2022-08-27T15:26:33.209Z,100741.56
2022-08-27T15:29:06.222Z,100752.53
2022-08-27T15:32:35.749Z,100757.53
2022-08-27T15:35:08.048Z,100754.28
2022-08-27T15:37:36.131Z,100759.81
2022-08-27T15:40:05.586Z,100761.56
2022-08-27T15:42:37.191Z,100766.19
2022-08-27T15:45:06.166Z,100753.44
2022-08-27T15:47:34.827Z,100750.06
2022-08-27T15:50:02.702Z,100765.34
2022-08-27T15:52:33.422Z,100746.31
2022-08-27T15:55:15.573Z,100751.38
2022-08-27T15:57:44.803Z,100755.66
2022-08-27T16:00:14.228Z,100757.25
2022-08-27T16:02:43.934Z,100760.84
2022-08-27T16:05:12.216Z,100751.78
2022-08-27T16:07:40.034Z,100753.81
2022-08-27T16:10:09.060Z,100752.63
2022-08-27T16:12:37.046Z,100760.31
2022-08-27T16:15:07.808Z,100759.22
2022-08-27T16:17:36.137Z,100766.34
2022-08-27T16:20:05.443Z,100767.78
2022-08-27T16:22:34.953Z,100774.31
2022-08-27T16:25:03.050Z,100766.25
2022-08-27T16:27:31.362Z,100765.22
2022-08-27T16:29:59.082Z,100763.88
2022-08-27T16:32:29.797Z,100753.81
2022-08-27T16:35:00.201Z,100757.63
2022-08-27T16:37:28.250Z,100749.16
2022-08-27T16:42:24.163Z,100748.56
2022-08-27T16:44:51.978Z,100759.69
2022-08-27T16:47:19.713Z,100753.72
2022-08-27T16:50:05.495Z,100750.06
2022-08-27T16:52:33.846Z,100740.78
2022-08-27T16:55:01.771Z,100750.34
2022-08-27T16:57:29.448Z,100742.28
2022-08-27T16:59:57.206Z,100743.59
2022-08-27T17:02:30.333Z,100739.34
2022-08-27T17:05:34.325Z,100756.69
2022-08-27T17:07:52.138Z,100762.19
2022-08-27T17:10:20.106Z,100752.91
2022-08-27T17:12:48.517Z,100763.84
2022-08-27T17:15:16.767Z,100755.69
2022-08-27T17:17:45.199Z,100756.56
2022-08-27T17:20:16.107Z,100765.00
2022-08-27T17:22:44.691Z,100755.75
2022-08-27T17:25:12.596Z,100764.47
2022-08-27T17:27:40.609Z,100755.16
2022-08-27T17:30:09.913Z,100758.16
2022-08-27T17:32:39.956Z,100753.03
2022-08-27T17:35:10.761Z,100765.28
2022-08-27T17:37:39.927Z,100751.41
2022-08-27T17:40:09.991Z,100754.69
2022-08-27T17:42:38.418Z,100763.97
2022-08-27T17:45:07.452Z,100755.81
2022-08-27T17:47:35.188Z,100759.09
2022-08-27T17:50:04.149Z,100764.28
2022-08-27T17:52:36.841Z,100770.84
2022-08-27T17:55:08.231Z,100765.44
2022-08-27T17:57:41.131Z,100773.88
2022-08-27T18:00:11.815Z,100775.50
2022-08-27T18:02:41.383Z,100782.59
2022-08-27T18:05:12.091Z,100784.22
2022-08-27T18:07:40.327Z,100787.78
2022-08-27T18:10:14.474Z,100794.06
2022-08-27T18:12:43.703Z,100789.69
2022-08-27T18:16:13.121Z,100790.78
2022-08-27T18:18:41.938Z,100792.97
2022-08-27T18:21:10.448Z,100800.06
2022-08-27T18:23:38.913Z,100788.88
2022-08-27T18:26:09.766Z,100791.34
2022-08-27T18:28:37.637Z,100794.31
2022-08-27T18:31:08.951Z,100795.13
2022-08-27T18:33:36.927Z,100805.47
2022-08-27T18:36:05.359Z,100795.41
2022-08-27T18:38:34.706Z,100795.41
2022-08-27T18:41:03.118Z,100796.78
2022-08-27T18:43:34.837Z,100802.22
2022-08-27T18:46:03.423Z,100801.94
2022-08-27T18:49:33.287Z,100814.72
2022-08-27T18:52:01.510Z,100813.63
2022-08-27T18:54:29.303Z,100819.06
2022-08-27T18:56:59.016Z,100822.88
2022-08-27T18:59:28.408Z,100820.97
2022-08-27T19:01:57.388Z,100819.06
2022-08-27T19:04:25.572Z,100811.72
2022-08-27T19:06:53.494Z,100814.72
2022-08-27T19:09:21.249Z,100813.63
2022-08-27T19:11:51.331Z,100819.59
2022-08-27T19:14:19.467Z,100819.88
2022-08-27T19:16:53.826Z,100830.19
2022-08-27T19:19:22.114Z,100832.34
2022-08-27T19:21:51.731Z,100840.78
2022-08-27T19:24:20.646Z,100839.94
2022-08-27T19:26:49.921Z,100841.31
2022-08-27T19:29:18.527Z,100844.03
2022-08-27T19:31:49.898Z,100847.28
2022-08-27T19:34:17.930Z,100857.03
2022-08-27T19:36:45.877Z,100857.03
2022-08-27T19:39:14.158Z,100851.25
2022-08-27T19:41:41.886Z,100847.69
2022-08-27T19:44:09.966Z,100855.31
2022-08-27T19:46:38.233Z,100864.53
2022-08-27T19:49:07.513Z,100865.59
2022-08-27T19:51:35.243Z,100874.78
2022-08-27T19:54:03.692Z,100872.34
2022-08-27T19:56:34.502Z,100885.59
2022-08-27T19:59:14.535Z,100871.44
2022-08-27T20:01:49.516Z,100878.47
2022-08-27T20:04:20.816Z,100875.72
2022-08-27T20:06:49.727Z,100875.19
2022-08-27T20:09:18.473Z,100878.69
2022-08-27T20:11:49.649Z,100880.00
2022-08-27T20:14:20.862Z,100872.66
2022-08-27T20:16:49.272Z,100876.38
2022-08-27T20:19:17.742Z,100876.63
2022-08-27T20:21:49.400Z,100870.59
2022-08-27T20:24:17.625Z,100872.41
2022-08-27T20:26:46.004Z,100877.75
2022-08-27T20:29:14.930Z,100882.81
2022-08-27T20:31:47.432Z,100874.91
2022-08-27T20:34:15.837Z,100882.22
2022-08-27T20:36:43.959Z,100870.13
2022-08-27T20:39:13.399Z,100880.09
2022-08-27T20:41:41.332Z,100882.53
2022-08-27T20:44:10.045Z,100889.47
2022-08-27T20:46:38.021Z,100880.13
2022-08-27T20:49:08.760Z,100881.97
2022-08-27T20:52:02.300Z,100883.81
2022-08-27T20:54:25.749Z,100892.19
2022-08-27T20:56:53.603Z,100891.31
2022-08-27T20:59:39.462Z,100898.84
2022-08-27T21:02:08.593Z,100891.22
2022-08-27T21:04:38.474Z,100894.13
2022-08-27T21:07:06.616Z,100899.88
2022-08-27T21:09:36.326Z,100898.75
2022-08-27T21:12:25.932Z,100895.44
2022-08-27T21:14:55.987Z,100902.88
2022-08-27T21:17:25.454Z,100905.84
2022-08-27T21:19:53.298Z,100907.16
2022-08-27T21:22:22.430Z,100910.94
2022-08-27T21:24:56.420Z,100909.09
2022-08-27T21:27:25.576Z,100918.63
2022-08-27T21:29:53.751Z,100916.41
2022-08-27T21:32:21.976Z,100918.63
2022-08-27T21:38:31.199Z,100920.50
2022-08-27T21:41:01.199Z,100923.41
2022-08-27T21:43:29.300Z,100925.03
2022-08-27T21:45:58.296Z,100920.44
2022-08-27T21:48:27.214Z,100925.91
2022-08-27T21:50:55.877Z,100921.25
2022-08-27T21:53:24.194Z,100930.50
2022-08-27T21:55:53.552Z,100930.44
2022-08-27T21:58:26.420Z,100931.06
2022-08-27T22:00:56.293Z,100923.84
2022-08-27T22:03:26.643Z,100924.34
2022-08-27T22:05:54.512Z,100932.72
2022-08-27T22:08:23.451Z,100930.88
2022-08-27T22:10:54.456Z,100929.41
2022-08-27T22:13:23.789Z,100931.19
2022-08-27T22:15:53.661Z,100936.09
2022-08-27T22:18:23.100Z,100936.09
2022-08-27T22:20:52.679Z,100942.25
2022-08-27T22:23:21.372Z,100937.31
2022-08-27T22:29:31.292Z,100943.41
2022-08-27T22:31:59.571Z,100944.59
2022-08-27T22:34:27.707Z,100942.00
2022-08-27T22:36:55.792Z,100939.81
2022-08-27T22:39:24.041Z,100943.19
2022-08-27T22:41:52.723Z,100933.13
2022-08-27T22:45:22.044Z,100938.88
2022-08-27T22:47:51.960Z,100935.34
2022-08-27T22:50:20.325Z,100938.16
2022-08-27T22:52:48.744Z,100946.25
2022-08-27T22:55:19.559Z,100938.59
2022-08-27T22:57:47.755Z,100938.03
2022-08-27T23:00:19.085Z,100943.28
2022-08-27T23:02:46.812Z,100936.56
2022-08-27T23:05:16.828Z,100944.75
2022-08-27T23:07:45.632Z,100940.97
2022-08-27T23:10:17.096Z,100945.56
2022-08-27T23:12:45.149Z,100941.75
2022-08-27T23:15:15.247Z,100938.94
2022-08-27T23:17:43.065Z,100939.06
2022-08-27T23:20:12.338Z,100941.19
2022-08-27T23:22:42.017Z,100946.50
2022-08-27T23:25:29.246Z,100939.31
2022-08-27T23:27:59.800Z,100935.09
2022-08-27T23:30:28.514Z,100931.81
2022-08-27T23:32:57.076Z,100939.31
2022-08-27T23:35:27.006Z,100932.06
2022-08-27T23:37:58.995Z,100931.72
2022-08-27T23:40:27.316Z,100933.13
2022-08-27T23:42:55.283Z,100935.47
2022-08-27T23:45:25.746Z,100931.84
2022-08-27T23:47:54.366Z,100929.25
2022-08-27T23:50:33.575Z,100933.72
2022-08-27T23:53:03.719Z,100934.31
2022-08-27T23:55:32.388Z,100931.84
2022-08-27T23:58:00.875Z,100936.41
